createdAt,value
2019-03-28T00:01:58.361Z,3.90
2019-03-28T00:04:28.265Z,3.80
2019-03-28T00:06:57.874Z,3.80
2019-03-28T00:09:27.419Z,3.70
2019-03-28T00:11:56.792Z,3.70
2019-03-28T00:14:26.169Z,3.70
2019-03-28T00:16:55.879Z,3.70
2019-03-28T00:19:25.344Z,3.70
2019-03-28T00:21:54.732Z,3.70
2019-03-28T00:24:27.881Z,3.70
2019-03-28T00:26:57.404Z,3.60
2019-03-28T00:29:26.852Z,3.50
2019-03-28T00:31:56.315Z,3.50
2019-03-28T00:34:25.780Z,3.50
2019-03-28T00:36:55.305Z,3.40
2019-03-28T00:39:24.785Z,3.40
2019-03-28T00:41:54.347Z,3.30
2019-03-28T00:44:23.797Z,3.30
2019-03-28T00:46:53.261Z,3.40
2019-03-28T00:49:23.118Z,3.40
2019-03-28T00:51:52.947Z,3.30
2019-03-28T00:54:22.415Z,3.30
2019-03-28T00:56:51.788Z,3.30
2019-03-28T00:59:21.237Z,3.30
2019-03-28T01:01:50.811Z,3.20
2019-03-28T01:04:20.787Z,3.20
2019-03-28T01:06:50.419Z,3.20
2019-03-28T01:09:22.150Z,3.20
2019-03-28T01:11:51.683Z,3.10
2019-03-28T01:14:21.059Z,3.10
2019-03-28T01:16:50.613Z,3.00
2019-03-28T01:19:20.050Z,2.90
2019-03-28T01:21:49.779Z,3.00
2019-03-28T01:24:20.087Z,3.00
2019-03-28T01:26:57.268Z,3.00
2019-03-28T01:29:20.773Z,3.00
2019-03-28T01:31:50.273Z,3.00
2019-03-28T01:34:19.650Z,3.00
2019-03-28T01:36:49.021Z,3.00
2019-03-28T01:39:18.494Z,2.90
2019-03-28T01:41:47.857Z,2.90
2019-03-28T01:44:17.580Z,2.80
2019-03-28T01:46:47.110Z,2.80
2019-03-28T01:49:16.632Z,2.80
2019-03-28T01:51:46.183Z,2.70
2019-03-28T01:54:15.633Z,2.70
2019-03-28T01:56:45.386Z,2.70
2019-03-28T01:59:14.917Z,2.70
2019-03-28T02:01:44.634Z,2.70
2019-03-28T02:04:14.010Z,2.60
2019-03-28T02:06:43.441Z,2.70
2019-03-28T02:09:12.898Z,2.60
2019-03-28T02:11:42.426Z,2.50
2019-03-28T02:14:12.418Z,2.50
2019-03-28T02:16:42.349Z,2.50
2019-03-28T02:19:11.873Z,2.50
2019-03-28T02:21:41.414Z,2.40
2019-03-28T02:24:10.885Z,2.40
2019-03-28T02:26:40.340Z,2.40
2019-03-28T02:29:09.871Z,2.50
2019-03-28T02:31:39.338Z,2.40
2019-03-28T02:34:08.709Z,2.50
2019-03-28T02:36:38.082Z,2.40
2019-03-28T02:39:07.650Z,2.40
2019-03-28T02:41:37.177Z,2.30
2019-03-28T02:44:06.631Z,2.40
2019-03-28T02:46:36.014Z,2.30
2019-03-28T02:49:05.549Z,2.30
2019-03-28T02:51:35.414Z,2.30
2019-03-28T02:54:05.525Z,2.20
2019-03-28T02:56:35.020Z,2.20
2019-03-28T02:59:04.546Z,2.20
2019-03-28T03:01:34.004Z,2.20
2019-03-28T03:04:03.527Z,2.10
2019-03-28T03:06:33.129Z,2.20
2019-03-28T03:09:02.694Z,2.10
2019-03-28T03:11:32.172Z,2.10
2019-03-28T03:14:01.555Z,2.10
2019-03-28T03:16:31.100Z,2.10
2019-03-28T03:19:00.635Z,2.10
2019-03-28T03:21:30.173Z,2.10
2019-03-28T03:23:59.645Z,2.10
2019-03-28T03:26:30.742Z,2.00
2019-03-28T03:29:01.606Z,2.00
2019-03-28T03:31:31.049Z,1.90
2019-03-28T03:34:00.435Z,1.90
2019-03-28T03:36:30.032Z,1.90
2019-03-28T03:38:59.554Z,1.90
2019-03-28T03:41:29.364Z,1.90
2019-03-28T03:43:58.749Z,2.00
2019-03-28T03:46:28.197Z,2.00
2019-03-28T03:48:57.642Z,1.90
2019-03-28T03:51:27.204Z,1.80
2019-03-28T03:53:56.600Z,1.80
2019-03-28T03:56:26.046Z,1.90
2019-03-28T03:58:55.465Z,1.80
2019-03-28T04:01:24.938Z,1.70
2019-03-28T04:03:55.762Z,1.80
2019-03-28T04:06:25.584Z,1.90
2019-03-28T04:08:55.105Z,1.90
2019-03-28T04:11:24.485Z,1.80
2019-03-28T04:13:54.020Z,1.80
2019-03-28T04:16:23.490Z,1.80
2019-03-28T04:18:52.935Z,1.80
2019-03-28T04:21:22.473Z,1.80
2019-03-28T04:23:51.914Z,1.80
2019-03-28T04:26:21.786Z,1.80
2019-03-28T04:28:51.363Z,1.80
2019-03-28T04:31:20.735Z,1.80
2019-03-28T04:33:50.108Z,1.70
2019-03-28T04:36:20.126Z,1.70
2019-03-28T04:38:50.547Z,1.80
2019-03-28T04:41:20.220Z,1.70
2019-03-28T04:43:49.693Z,1.70
2019-03-28T04:46:19.201Z,1.60
2019-03-28T04:48:50.709Z,1.60
2019-03-28T04:51:19.974Z,1.60
2019-03-28T04:53:49.538Z,1.70
2019-03-28T04:56:19.814Z,1.70
2019-03-28T04:58:49.437Z,1.60
2019-03-28T05:01:19.288Z,1.60
2019-03-28T05:03:49.375Z,1.60
2019-03-28T05:06:19.039Z,1.60
2019-03-28T05:08:48.409Z,1.50
2019-03-28T05:11:18.352Z,1.60
2019-03-28T05:13:48.867Z,1.60
2019-03-28T05:16:18.336Z,1.60
2019-03-28T05:18:47.797Z,1.60
2019-03-28T05:21:17.189Z,1.50
2019-03-28T05:23:47.155Z,1.50
2019-03-28T05:26:16.519Z,1.50
2019-03-28T05:28:56.997Z,1.50
2019-03-28T05:31:17.272Z,1.50
2019-03-28T05:33:46.649Z,1.60
2019-03-28T05:36:16.216Z,1.60
2019-03-28T05:38:45.992Z,1.50
2019-03-28T05:41:17.380Z,1.60
2019-03-28T05:43:47.030Z,1.70
2019-03-28T05:46:16.863Z,1.60
2019-03-28T05:48:46.317Z,1.60
2019-03-28T05:51:15.942Z,1.60
2019-03-28T05:53:46.505Z,1.60
2019-03-28T05:56:16.080Z,1.60
2019-03-28T05:58:45.623Z,1.60
2019-03-28T06:01:15.275Z,1.60
2019-03-28T06:03:44.736Z,1.70
2019-03-28T06:06:14.873Z,1.80
2019-03-28T06:08:44.601Z,1.80
2019-03-28T06:11:14.153Z,1.90
2019-03-28T06:13:43.644Z,1.90
2019-03-28T06:16:13.107Z,1.90
2019-03-28T06:18:42.550Z,2.00
2019-03-28T06:21:12.053Z,2.00
2019-03-28T06:23:41.508Z,2.00
2019-03-28T06:26:10.965Z,2.10
2019-03-28T06:28:40.369Z,2.10
2019-03-28T06:31:10.629Z,2.20
2019-03-28T06:33:40.388Z,2.40
2019-03-28T06:36:09.785Z,3.10
2019-03-28T06:38:39.240Z,3.90
2019-03-28T06:41:08.803Z,4.70
2019-03-28T06:43:38.275Z,5.20
2019-03-28T06:46:07.808Z,5.90
2019-03-28T06:48:37.259Z,6.60
2019-03-28T06:51:06.809Z,7.20
2019-03-28T06:53:36.341Z,7.90
2019-03-28T06:56:05.870Z,8.70
2019-03-28T06:58:35.525Z,9.20
2019-03-28T07:01:05.053Z,9.80
2019-03-28T07:03:34.525Z,10.40
2019-03-28T07:06:04.086Z,11.00
2019-03-28T07:08:33.878Z,11.60
2019-03-28T07:11:03.427Z,12.00
2019-03-28T07:13:32.845Z,12.60
2019-03-28T07:16:02.345Z,13.00
2019-03-28T07:18:31.809Z,13.70
2019-03-28T07:21:01.277Z,14.10
2019-03-28T07:23:30.673Z,14.60
2019-03-28T07:26:00.130Z,15.10
2019-03-28T07:28:29.703Z,15.50
2019-03-28T07:30:59.302Z,16.00
2019-03-28T07:33:28.842Z,16.40
2019-03-28T07:35:58.321Z,16.80
2019-03-28T07:38:27.901Z,17.30
2019-03-28T07:40:57.445Z,17.90
2019-03-28T07:43:26.918Z,18.40
2019-03-28T07:45:56.309Z,18.80
2019-03-28T07:48:25.762Z,19.10
2019-03-28T07:50:55.232Z,19.40
2019-03-28T07:53:24.805Z,19.70
2019-03-28T07:55:54.253Z,20.20
2019-03-28T07:58:23.853Z,20.60
2019-03-28T08:00:53.446Z,21.00
2019-03-28T08:03:22.850Z,21.20
2019-03-28T08:05:52.322Z,21.70
2019-03-28T08:08:21.949Z,22.20
2019-03-28T08:10:51.410Z,22.50
2019-03-28T08:13:20.871Z,22.60
2019-03-28T08:15:50.347Z,22.80
2019-03-28T08:18:22.402Z,22.80
2019-03-28T08:20:51.446Z,23.00
2019-03-28T08:23:20.912Z,23.10
2019-03-28T08:25:50.447Z,23.60
2019-03-28T08:28:19.940Z,24.10
2019-03-28T08:30:49.425Z,24.50
2019-03-28T08:33:18.962Z,24.60
2019-03-28T08:35:49.332Z,25.00
2019-03-28T08:38:20.435Z,25.10
2019-03-28T08:40:49.889Z,25.60
2019-03-28T08:43:19.353Z,25.70
2019-03-28T08:45:48.829Z,25.60
2019-03-28T08:48:18.265Z,26.00
2019-03-28T08:50:48.023Z,25.80
2019-03-28T08:53:17.474Z,25.60
2019-03-28T08:55:47.000Z,25.70
2019-03-28T08:58:16.540Z,25.60
2019-03-28T09:00:52.102Z,26.00
2019-03-28T09:03:17.326Z,25.70
2019-03-28T09:05:46.823Z,25.50
2019-03-28T09:08:16.203Z,25.90
2019-03-28T09:10:45.808Z,25.90
2019-03-28T09:13:15.378Z,26.00
2019-03-28T09:15:45.087Z,26.80
2019-03-28T09:18:14.530Z,26.60
2019-03-28T09:20:44.086Z,26.80
2019-03-28T09:23:13.529Z,27.00
2019-03-28T09:25:42.995Z,27.20
2019-03-28T09:28:12.402Z,27.50
2019-03-28T09:30:48.714Z,26.80
2019-03-28T09:33:13.992Z,25.80
2019-03-28T09:35:43.685Z,25.60
2019-03-28T09:38:13.390Z,26.10
2019-03-28T09:40:42.925Z,26.10
2019-03-28T09:43:12.550Z,26.70
2019-03-28T09:45:42.079Z,26.70
2019-03-28T09:48:12.036Z,27.20
2019-03-28T09:50:41.814Z,27.00
2019-03-28T09:53:11.340Z,27.60
2019-03-28T09:55:40.722Z,27.50
2019-03-28T09:58:10.218Z,26.80
2019-03-28T10:00:39.674Z,26.70
2019-03-28T10:03:09.226Z,25.60
2019-03-28T10:05:39.109Z,25.80
2019-03-28T10:08:08.669Z,25.70
2019-03-28T10:10:38.060Z,24.90
2019-03-28T10:13:07.605Z,25.20
2019-03-28T10:15:37.299Z,25.30
2019-03-28T10:18:07.044Z,25.60
2019-03-28T10:20:36.588Z,25.00
2019-03-28T10:23:06.119Z,25.40
2019-03-28T10:25:35.578Z,25.20
2019-03-28T10:28:05.148Z,24.80
2019-03-28T10:30:45.130Z,24.60
2019-03-28T10:33:14.669Z,25.20
2019-03-28T10:35:44.230Z,25.10
2019-03-28T10:38:13.830Z,25.20
2019-03-28T10:40:43.388Z,25.00
2019-03-28T10:43:12.971Z,24.40
2019-03-28T10:45:42.508Z,24.70
2019-03-28T10:48:12.177Z,24.10
2019-03-28T10:50:45.617Z,24.30
2019-03-28T10:53:12.919Z,24.80
2019-03-28T10:55:42.638Z,25.10
2019-03-28T10:58:18.907Z,24.60
2019-03-28T11:00:43.564Z,24.10
2019-03-28T11:03:13.141Z,23.90
2019-03-28T11:05:42.686Z,22.00
2019-03-28T11:08:13.162Z,20.70
2019-03-28T11:10:42.657Z,21.30
2019-03-28T11:13:12.201Z,21.50
2019-03-28T11:15:41.660Z,21.50
2019-03-28T11:18:11.127Z,21.20
2019-03-28T11:20:40.618Z,20.60
2019-03-28T11:23:10.070Z,20.30
2019-03-28T11:25:39.650Z,19.80
2019-03-28T11:28:09.096Z,20.00
2019-03-28T11:30:38.621Z,19.40
2019-03-28T11:33:08.271Z,19.80
2019-03-28T11:35:37.793Z,19.60
2019-03-28T11:38:09.571Z,19.20
2019-03-28T11:40:41.252Z,19.40
2019-03-28T11:43:10.526Z,19.50
2019-03-28T11:45:40.134Z,18.90
2019-03-28T11:48:09.754Z,18.30
2019-03-28T11:50:39.243Z,18.70
2019-03-28T11:53:08.709Z,18.90
2019-03-28T11:55:38.139Z,18.30
2019-03-28T11:58:07.666Z,18.50
2019-03-28T12:00:37.122Z,18.70
2019-03-28T12:03:06.597Z,18.10
2019-03-28T12:05:36.115Z,18.10
2019-03-28T12:08:05.881Z,17.40
2019-03-28T12:10:35.462Z,17.50
2019-03-28T12:13:05.014Z,17.60
2019-03-28T12:15:34.638Z,17.60
2019-03-28T12:18:04.225Z,17.50
2019-03-28T12:20:33.712Z,17.10
2019-03-28T12:23:03.278Z,17.10
2019-03-28T12:25:32.816Z,16.80
2019-03-28T12:28:02.351Z,17.10
2019-03-28T12:30:31.882Z,17.20
2019-03-28T12:33:01.420Z,17.20
2019-03-28T12:35:30.892Z,17.30
2019-03-28T12:38:00.601Z,16.90
2019-03-28T12:40:30.017Z,16.70
2019-03-28T12:42:59.529Z,16.80
2019-03-28T12:45:29.029Z,16.90
2019-03-28T12:47:58.448Z,16.60
2019-03-28T12:50:27.998Z,16.70
2019-03-28T12:52:58.388Z,16.80
2019-03-28T12:55:27.990Z,16.60
2019-03-28T12:57:57.527Z,16.50
2019-03-28T13:00:37.422Z,16.60
2019-03-28T13:03:07.009Z,16.70
2019-03-28T13:05:36.803Z,16.90
2019-03-28T13:08:06.485Z,17.00
2019-03-28T13:10:36.097Z,17.00
2019-03-28T13:13:06.524Z,16.80
2019-03-28T13:15:35.916Z,16.70
2019-03-28T13:18:05.559Z,16.50
2019-03-28T13:20:35.066Z,16.70
2019-03-28T13:23:04.805Z,16.70
2019-03-28T13:25:34.265Z,16.70
2019-03-28T13:28:03.750Z,16.80
2019-03-28T13:30:33.313Z,16.80
2019-03-28T13:33:02.841Z,17.00
2019-03-28T13:35:35.165Z,16.80
2019-03-28T13:38:03.894Z,16.60
2019-03-28T13:40:34.034Z,16.80
2019-03-28T13:43:04.661Z,16.40
2019-03-28T13:45:34.568Z,16.50
2019-03-28T13:48:04.192Z,16.50
2019-03-28T13:50:34.425Z,16.50
2019-03-28T13:53:04.163Z,16.70
2019-03-28T13:55:33.760Z,17.00
2019-03-28T13:58:03.397Z,17.10
2019-03-28T14:00:34.421Z,17.20
2019-03-28T14:03:04.153Z,17.20
2019-03-28T14:05:34.072Z,17.00
2019-03-28T14:08:03.650Z,16.90
2019-03-28T14:10:33.260Z,16.90
2019-03-28T14:13:02.783Z,17.00
2019-03-28T14:15:32.469Z,17.10
2019-03-28T14:18:01.939Z,17.20
2019-03-28T14:20:31.496Z,17.10
2019-03-28T14:23:01.038Z,17.20
2019-03-28T14:25:30.976Z,17.20
2019-03-28T14:28:00.506Z,17.20
2019-03-28T14:30:30.057Z,17.10
2019-03-28T14:33:10.511Z,16.90
2019-03-28T14:35:30.716Z,16.90
2019-03-28T14:38:00.211Z,16.70
2019-03-28T14:40:29.855Z,16.80
2019-03-28T14:42:59.314Z,16.60
2019-03-28T14:45:28.805Z,16.60
2019-03-28T14:47:58.333Z,16.60
2019-03-28T14:50:35.729Z,16.50
2019-03-28T14:53:05.463Z,16.50
2019-03-28T14:55:35.169Z,16.40
2019-03-28T14:58:06.663Z,16.30
2019-03-28T15:00:53.007Z,16.30
2019-03-28T15:03:27.311Z,16.20
2019-03-28T15:05:53.986Z,16.10
2019-03-28T15:08:23.518Z,15.80
2019-03-28T15:10:53.120Z,15.90
2019-03-28T15:13:23.029Z,15.90
2019-03-28T15:15:52.927Z,15.90
2019-03-28T15:18:22.412Z,16.00
2019-03-28T15:20:51.947Z,16.20
2019-03-28T15:23:21.469Z,16.20
2019-03-28T15:25:50.952Z,16.30
2019-03-28T15:28:20.405Z,16.10
2019-03-28T15:30:49.951Z,16.20
2019-03-28T15:33:19.340Z,16.10
2019-03-28T15:35:48.797Z,16.10
2019-03-28T15:38:18.646Z,16.10
2019-03-28T15:40:48.178Z,16.00
2019-03-28T15:43:17.746Z,15.90
2019-03-28T15:45:47.294Z,15.90
2019-03-28T15:48:16.864Z,15.70
2019-03-28T15:50:46.390Z,15.60
2019-03-28T15:53:15.847Z,15.60
2019-03-28T15:55:45.477Z,15.70
2019-03-28T15:58:23.014Z,15.70
2019-03-28T16:00:46.190Z,15.70
2019-03-28T16:03:15.669Z,15.60
2019-03-28T16:05:57.621Z,15.60
2019-03-28T16:08:16.225Z,15.70
2019-03-28T16:10:45.797Z,15.70
2019-03-28T16:13:15.358Z,15.60
2019-03-28T16:15:45.096Z,15.60
2019-03-28T16:18:14.650Z,15.50
2019-03-28T16:20:44.197Z,15.40
2019-03-28T16:23:13.742Z,15.40
2019-03-28T16:25:43.273Z,15.20
2019-03-28T16:28:12.668Z,15.20
2019-03-28T16:30:42.248Z,15.20
2019-03-28T16:33:11.788Z,15.20
2019-03-28T16:35:41.157Z,15.20
2019-03-28T16:38:10.739Z,15.20
2019-03-28T16:40:40.234Z,15.30
2019-03-28T16:43:09.763Z,15.30
2019-03-28T16:45:39.388Z,15.20
2019-03-28T16:48:09.222Z,15.20
2019-03-28T16:50:38.768Z,15.20
2019-03-28T16:53:08.249Z,15.10
2019-03-28T16:55:37.720Z,15.00
2019-03-28T16:58:07.517Z,14.90
2019-03-28T17:00:40.084Z,14.90
2019-03-28T17:03:09.841Z,14.90
2019-03-28T17:05:41.630Z,14.80
2019-03-28T17:08:12.255Z,14.90
2019-03-28T17:10:49.268Z,14.90
2019-03-28T17:13:18.945Z,14.90
2019-03-28T17:15:48.537Z,14.70
2019-03-28T17:18:18.823Z,14.70
2019-03-28T17:20:49.566Z,14.60
2019-03-28T17:23:19.361Z,14.50
2019-03-28T17:25:49.360Z,14.40
2019-03-28T17:28:18.902Z,14.30
2019-03-28T17:30:48.444Z,14.20
2019-03-28T17:33:18.166Z,14.20
2019-03-28T17:35:47.852Z,14.10
2019-03-28T17:38:17.773Z,14.10
2019-03-28T17:40:47.332Z,14.10
2019-03-28T17:43:17.076Z,14.00
2019-03-28T17:45:46.608Z,13.90
2019-03-28T17:48:16.399Z,13.90
2019-03-28T17:50:45.857Z,13.80
2019-03-28T17:53:15.394Z,13.80
2019-03-28T17:55:45.013Z,13.70
2019-03-28T17:58:14.637Z,13.70
2019-03-28T18:00:46.160Z,13.80
2019-03-28T18:03:15.709Z,13.80
2019-03-28T18:05:57.456Z,13.60
2019-03-28T18:08:16.540Z,13.50
2019-03-28T18:10:46.198Z,13.50
2019-03-28T18:13:15.757Z,13.40
2019-03-28T18:15:45.284Z,13.30
2019-03-28T18:18:15.140Z,13.30
2019-03-28T18:20:44.674Z,13.20
2019-03-28T18:23:14.541Z,12.90
2019-03-28T18:25:44.104Z,12.60
2019-03-28T18:28:13.828Z,12.40
2019-03-28T18:30:43.641Z,12.10
2019-03-28T18:33:13.290Z,12.10
2019-03-28T18:35:43.076Z,12.10
2019-03-28T18:38:12.672Z,11.80
2019-03-28T18:40:42.166Z,11.60
2019-03-28T18:43:11.790Z,11.50
2019-03-28T18:45:41.174Z,11.50
2019-03-28T18:48:11.383Z,11.10
2019-03-28T18:50:41.447Z,11.00
2019-03-28T18:53:11.097Z,11.00
2019-03-28T18:55:40.675Z,10.80
2019-03-28T18:58:10.218Z,10.70
2019-03-28T19:00:40.071Z,10.70
2019-03-28T19:03:10.220Z,10.70
2019-03-28T19:05:39.753Z,10.60
2019-03-28T19:08:09.390Z,10.70
2019-03-28T19:10:39.050Z,10.50
2019-03-28T19:13:08.522Z,10.50
2019-03-28T19:15:38.054Z,10.50
2019-03-28T19:18:07.977Z,10.40
2019-03-28T19:20:37.510Z,10.30
2019-03-28T19:23:07.450Z,10.30
2019-03-28T19:25:37.826Z,10.30
2019-03-28T19:28:08.444Z,10.10
2019-03-28T19:30:39.098Z,10.00
2019-03-28T19:33:09.163Z,10.00
2019-03-28T19:35:40.410Z,9.90
2019-03-28T19:38:10.024Z,9.90
2019-03-28T19:40:39.659Z,9.90
2019-03-28T19:43:19.654Z,10.00
2019-03-28T19:45:41.597Z,9.80
2019-03-28T19:48:11.232Z,9.80
2019-03-28T19:50:41.803Z,9.90
2019-03-28T19:53:12.149Z,9.70
2019-03-28T19:55:42.118Z,9.50
2019-03-28T19:58:13.734Z,9.60
2019-03-28T20:00:44.252Z,9.60
2019-03-28T20:03:13.972Z,9.70
2019-03-28T20:05:47.997Z,9.50
2019-03-28T20:08:16.419Z,9.60
2019-03-28T20:10:46.454Z,9.50
2019-03-28T20:13:16.002Z,9.40
2019-03-28T20:15:45.463Z,9.50
2019-03-28T20:18:14.937Z,9.50
2019-03-28T20:20:44.406Z,9.50
2019-03-28T20:23:14.181Z,9.50
2019-03-28T20:25:43.795Z,9.50
2019-03-28T20:28:14.609Z,9.50
2019-03-28T20:30:44.638Z,9.40
2019-03-28T20:33:14.100Z,9.40
2019-03-28T20:35:43.637Z,9.40
2019-03-28T20:38:13.185Z,9.40
2019-03-28T20:40:43.513Z,9.40
2019-03-28T20:43:13.594Z,9.40
2019-03-28T20:45:43.401Z,9.50
2019-03-28T20:48:13.957Z,9.40
2019-03-28T20:50:43.752Z,9.50
2019-03-28T20:53:13.554Z,9.70
2019-03-28T20:55:43.192Z,9.70
2019-03-28T20:58:12.743Z,9.80
2019-03-28T21:00:44.264Z,9.80
2019-03-28T21:03:15.006Z,9.80
2019-03-28T21:05:45.298Z,10.10
2019-03-28T21:08:15.055Z,10.00
2019-03-28T21:10:44.630Z,10.10
2019-03-28T21:13:14.157Z,10.20
2019-03-28T21:15:43.618Z,10.30
2019-03-28T21:18:13.089Z,10.50
2019-03-28T21:20:42.540Z,10.50
2019-03-28T21:23:12.287Z,10.60
2019-03-28T21:25:42.669Z,10.70
2019-03-28T21:28:13.863Z,10.70
2019-03-28T21:30:47.600Z,10.80
2019-03-28T21:33:15.480Z,10.90
2019-03-28T21:35:45.061Z,10.90
2019-03-28T21:38:15.009Z,11.00
2019-03-28T21:40:44.607Z,11.00
2019-03-28T21:43:14.145Z,11.00
2019-03-28T21:45:43.666Z,11.00
2019-03-28T21:48:13.061Z,11.00
2019-03-28T21:50:42.516Z,11.00
2019-03-28T21:53:11.971Z,11.00
2019-03-28T21:55:54.313Z,11.10
2019-03-28T21:58:12.828Z,11.10
2019-03-28T22:00:42.676Z,11.10
2019-03-28T22:03:12.274Z,11.00
2019-03-28T22:05:41.654Z,10.90
2019-03-28T22:08:11.114Z,10.90
2019-03-28T22:10:40.617Z,11.00
2019-03-28T22:13:12.131Z,10.80
2019-03-28T22:15:41.351Z,10.70
2019-03-28T22:18:10.914Z,10.60
2019-03-28T22:20:40.369Z,10.40
2019-03-28T22:23:09.824Z,10.30
2019-03-28T22:25:39.221Z,10.30
2019-03-28T22:28:08.680Z,10.20
2019-03-28T22:30:38.913Z,9.90
2019-03-28T22:33:08.652Z,9.90
2019-03-28T22:35:38.201Z,9.90
2019-03-28T22:38:07.594Z,10.00
2019-03-28T22:40:37.148Z,10.00
2019-03-28T22:43:07.330Z,9.90
2019-03-28T22:45:36.848Z,9.80
2019-03-28T22:48:10.939Z,9.80
2019-03-28T22:50:38.530Z,9.90
2019-03-28T22:53:07.985Z,10.00
2019-03-28T22:55:37.520Z,9.80
2019-03-28T22:58:08.093Z,9.70
2019-03-28T23:00:48.224Z,9.80
2019-03-28T23:03:18.003Z,9.60
2019-03-28T23:05:47.531Z,9.50
2019-03-28T23:08:17.073Z,9.60
2019-03-28T23:10:47.954Z,9.40
2019-03-28T23:13:17.702Z,9.50
2019-03-28T23:15:47.243Z,9.60
2019-03-28T23:18:16.788Z,9.60
2019-03-28T23:20:46.341Z,9.50
2019-03-28T23:23:15.901Z,9.40
2019-03-28T23:25:45.445Z,9.40
2019-03-28T23:28:14.889Z,9.60
2019-03-28T23:30:44.388Z,9.70
2019-03-28T23:33:13.825Z,9.60
2019-03-28T23:35:43.434Z,9.60
2019-03-28T23:38:12.982Z,9.40
2019-03-28T23:40:42.505Z,9.10
2019-03-28T23:43:12.381Z,9.00
2019-03-28T23:45:41.881Z,8.80
2019-03-28T23:48:11.428Z,8.80
2019-03-28T23:50:40.869Z,8.80
2019-03-28T23:53:10.290Z,8.60
2019-03-28T23:55:39.826Z,8.50
2019-03-28T23:58:09.348Z,8.50
